Terminal Aerodrome Forecast
Issued by NWS

Home | Current Version | Previous Version | Text Only | Print | Product List | Glossary On
Versions: 1 2 3 4 5 6 7 8 9 10 11 12 13 14
049
FTUS46 KSEW 260726 AAA
TAFHQM
TAF AMD
KHQM 260726Z 2607/2706 27010KT P6SM SCT025 SCT040
      TEMPO 2608/2610 BKN025 BKN040
     FM261000 26010KT P6SM OVC022
     FM262000 25014KT P6SM VCSH OVC035
     FM270000 26015G22KT P6SM VCSH OVC030=

USA.gov is the U.S. government's official web portal to all federal, state and local government web resources and services.